Time;durP1;ratioP1;P1;durP2;ratioP2;P2;SDS_P1;SDS_P2;PMS_P1;PMS_P2;Temp;Humidity;BMP_temperature;BMP_pressure;BME280_temperature;BME280_humidity;BME280_pressure;Samples;Min_cycle;Max_cycle;Signal;HPM_P1;HPM_P2
2023/01/21 07:02:29;;;;;;;;;42.50;30.25;;;;;;;;6397569;22;45506;-56
2023/01/21 07:04:55;;;;;;;;;37.50;32.00;;;;;;;;6369511;22;45933;-57
2023/01/21 07:07:20;;;;;;;;;37.25;25.00;;;;;;;;6402038;22;45700;-57
2023/01/21 07:09:45;;;;;;;;;34.50;30.00;;;;;;;;6402323;22;45515;-57
2023/01/21 07:12:10;;;;;;;;;43.50;36.25;;;;;;;;6401115;22;45578;-58
2023/01/21 07:14:35;;;;;;;;;37.00;35.50;;;;;;;;6372367;22;46326;-56
2023/01/21 07:17:01;;;;;;;;;39.00;34.50;;;;;;;;6399018;22;45381;-56
2023/01/21 07:19:26;;;;;;;;;54.00;30.00;;;;;;;;6403327;22;45155;-56
2023/01/21 07:21:52;;;;;;;;;37.00;34.50;;;;;;;;6401738;22;45181;-57
2023/01/21 07:24:17;;;;;;;;;29.50;27.50;;;;;;;;6402479;22;45969;-57
2023/01/21 07:26:42;;;;;;;;;44.00;36.00;;;;;;;;6403112;22;45398;-56
2023/01/21 07:29:08;;;;;;;;;43.25;30.75;;;;;;;;6403530;22;45272;-56
2023/01/21 07:31:33;;;;;;;;;39.50;32.75;;;;;;;;6374686;22;45232;-57
2023/01/21 07:33:58;;;;;;;;;42.25;35.75;;;;;;;;6402431;22;45873;-56
2023/01/21 07:36:23;;;;;;;;;39.50;33.75;;;;;;;;6403468;22;45694;-57
2023/01/21 07:38:49;;;;;;;;;36.50;30.75;;;;;;;;6403966;22;45254;-55
2023/01/21 07:41:14;;;;;;;;;48.00;34.00;;;;;;;;6403369;22;45177;-57
2023/01/21 07:43:39;;;;;;;;;31.75;26.50;;;;;;;;6403551;22;46181;-56
2023/01/21 07:46:04;;;;;;;;;41.00;36.50;;;;;;;;6402885;22;45234;-56
2023/01/21 07:48:30;;;;;;;;;37.50;31.00;;;;;;;;6401752;22;45333;-56
2023/01/21 07:50:55;;;;;;;;;37.75;34.50;;;;;;;;6402532;22;45412;-57
2023/01/21 07:53:20;;;;;;;;;38.75;32.75;;;;;;;;6402560;22;46084;-57
2023/01/21 07:55:46;;;;;;;;;39.25;34.00;;;;;;;;6402934;22;45193;-55
2023/01/21 07:58:11;;;;;;;;;36.75;31.25;;;;;;;;6403449;22;45371;-56
2023/01/21 08:00:36;;;;;;;;;51.25;35.00;;;;;;;;6403042;22;45309;-56
2023/01/21 08:03:01;;;;;;;;;35.50;33.00;;;;;;;;6402782;22;45478;-56
2023/01/21 08:05:26;;;;;;;;;36.00;32.50;;;;;;;;6403456;22;45323;-56
2023/01/21 08:07:55;;;;;;;;;35.75;29.75;;;;;;;;6402170;22;45442;-57
2023/01/21 08:10:21;;;;;;;;;43.75;35.00;;;;;;;;6402959;22;45514;-55
2023/01/21 08:12:46;;;;;;;;;43.75;32.50;;;;;;;;6402857;22;45566;-55
2023/01/21 08:15:11;;;;;;;;;50.50;38.00;;;;;;;;6402188;22;45295;-57
2023/01/21 08:17:37;;;;;;;;;40.75;34.25;;;;;;;;6402749;22;45252;-57
2023/01/21 08:20:03;;;;;;;;;41.75;37.50;;;;;;;;6402262;22;45545;-55
2023/01/21 08:22:28;;;;;;;;;49.25;37.00;;;;;;;;6401690;22;45343;-56
2023/01/21 08:24:53;;;;;;;;;50.75;34.75;;;;;;;;6400625;22;45185;-55
2023/01/21 08:27:19;;;;;;;;;45.25;33.75;;;;;;;;6403301;22;45226;-56
2023/01/21 08:29:45;;;;;;;;;36.25;29.75;;;;;;;;6403518;22;45257;-57
2023/01/21 08:32:10;;;;;;;;;45.25;40.25;;;;;;;;6400827;22;46215;-57
2023/01/21 08:34:36;;;;;;;;;53.00;41.25;;;;;;;;6402677;22;45245;-58
2023/01/21 08:37:01;;;;;;;;;46.50;39.50;;;;;;;;6402938;22;45513;-57
2023/01/21 08:39:26;;;;;;;;;47.00;38.50;;;;;;;;6403157;22;45352;-56
2023/01/21 08:41:51;;;;;;;;;44.75;39.00;;;;;;;;6402236;22;45369;-58
2023/01/21 08:44:17;;;;;;;;;49.50;35.75;;;;;;;;6402618;22;45277;-56
2023/01/21 08:46:42;;;;;;;;;57.50;43.50;;;;;;;;6374409;22;45455;-58
2023/01/21 08:49:07;;;;;;;;;47.25;40.25;;;;;;;;6401885;22;45391;-52
2023/01/21 08:51:32;;;;;;;;;46.00;42.25;;;;;;;;6402797;22;45327;-52
2023/01/21 08:53:58;;;;;;;;;55.75;38.50;;;;;;;;6401051;22;45373;-55
2023/01/21 08:56:23;;;;;;;;;40.75;35.25;;;;;;;;6401168;22;45391;-54
2023/01/21 08:58:52;;;;;;;;;45.25;37.25;;;;;;;;6402187;22;45403;-56
2023/01/21 09:01:17;;;;;;;;;34.50;25.25;;;;;;;;6401875;22;45262;-58
2023/01/21 09:03:42;;;;;;;;;44.25;37.25;;;;;;;;6373720;22;45321;-56
2023/01/21 09:06:09;;;;;;;;;47.00;39.25;;;;;;;;6402604;22;45264;-53
2023/01/21 09:08:35;;;;;;;;;56.50;37.75;;;;;;;;6403043;22;45571;-56
2023/01/21 09:11:01;;;;;;;;;50.75;36.75;;;;;;;;6402483;22;46199;-57
2023/01/21 09:13:27;;;;;;;;;48.75;40.25;;;;;;;;6403474;22;45278;-57
2023/01/21 09:15:52;;;;;;;;;48.00;39.00;;;;;;;;6403758;22;45291;-56
2023/01/21 09:18:18;;;;;;;;;56.50;44.50;;;;;;;;6403500;22;45318;-57
2023/01/21 09:20:43;;;;;;;;;45.25;38.25;;;;;;;;6402885;22;45511;-58
2023/01/21 09:23:23;;;;;;;;;45.75;38.25;;;;;;;;6374065;22;45337;-56
2023/01/21 09:26:09;;;;;;;;;52.75;40.25;;;;;;;;6402479;22;45292;-55
2023/01/21 09:28:35;;;;;;;;;48.00;37.50;;;;;;;;6401266;22;45218;-57
2023/01/21 09:31:02;;;;;;;;;40.50;22.50;;;;;;;;6401473;22;47209;-57
2023/01/21 09:33:28;;;;;;;;;44.25;36.25;;;;;;;;6401853;22;45504;-58
2023/01/21 09:35:54;;;;;;;;;41.75;36.50;;;;;;;;6400967;22;45710;-59
2023/01/21 09:38:19;;;;;;;;;51.00;43.25;;;;;;;;6399863;22;45612;-58
2023/01/21 09:40:45;;;;;;;;;51.50;38.00;;;;;;;;6401872;22;45270;-59
2023/01/21 09:43:15;;;;;;;;;36.25;32.00;;;;;;;;6403650;22;45295;-59
2023/01/21 09:45:42;;;;;;;;;55.25;43.25;;;;;;;;6375837;22;45312;-59
2023/01/21 09:48:09;;;;;;;;;51.75;41.75;;;;;;;;6402236;22;45384;-58
2023/01/21 09:50:37;;;;;;;;;56.00;42.00;;;;;;;;6403393;22;45294;-58
2023/01/21 09:53:11;;;;;;;;;54.50;40.00;;;;;;;;6400716;22;45147;-59
2023/01/21 09:55:46;;;;;;;;;50.25;38.00;;;;;;;;6401708;22;45331;-58
2023/01/21 09:58:14;;;;;;;;;51.75;43.50;;;;;;;;6372043;22;45371;-58
2023/01/21 10:00:44;;;;;;;;;51.75;38.25;;;;;;;;6402163;22;45257;-57
2023/01/21 10:03:35;;;;;;;;;49.75;41.00;;;;;;;;6399887;22;45327;-58
2023/01/21 10:06:17;;;;;;;;;53.75;40.75;;;;;;;;6401944;22;45149;-57
2023/01/21 10:08:58;;;;;;;;;54.00;39.75;;;;;;;;6403582;22;45226;-58
2023/01/21 10:11:59;;;;;;;;;44.75;36.75;;;;;;;;6403464;22;45425;-58
2023/01/21 10:14:43;;;;;;;;;44.25;39.75;;;;;;;;6272903;22;45320;-58
2023/01/21 10:17:20;;;;;;;;;44.25;36.00;;;;;;;;6391213;22;45397;-59
2023/01/21 10:19:45;;;;;;;;;37.50;36.25;;;;;;;;6402306;22;45511;-58
2023/01/21 10:22:16;;;;;;;;;53.25;39.75;;;;;;;;6401410;22;45329;-59
2023/01/21 10:24:45;;;;;;;;;47.75;37.00;;;;;;;;6403015;22;45351;-56
2023/01/21 10:27:18;;;;;;;;;52.00;38.25;;;;;;;;6401346;22;45238;-54
2023/01/21 10:29:45;;;;;;;;;51.75;39.00;;;;;;;;6402604;22;45353;-56
2023/01/21 10:32:19;;;;;;;;;43.50;34.50;;;;;;;;6401987;22;46067;-55
2023/01/21 10:34:52;;;;;;;;;45.75;38.00;;;;;;;;6403036;22;45248;-56
2023/01/21 10:37:26;;;;;;;;;55.25;40.00;;;;;;;;6403958;22;45266;-56
2023/01/21 10:40:03;;;;;;;;;47.00;38.50;;;;;;;;6402892;22;45688;-55
2023/01/21 10:42:35;;;;;;;;;50.50;38.50;;;;;;;;6403574;22;46267;-55
2023/01/21 10:45:24;;;;;;;;;51.00;40.00;;;;;;;;6403175;22;45357;-55
2023/01/21 10:47:53;;;;;;;;;54.50;39.75;;;;;;;;6385517;22;45186;-56
2023/01/21 10:50:37;;;;;;;;;45.50;39.00;;;;;;;;6403206;22;45376;-55
2023/01/21 10:53:19;;;;;;;;;50.25;40.50;;;;;;;;6401568;22;45566;-57
2023/01/21 10:56:14;;;;;;;;;54.00;39.25;;;;;;;;6402377;22;45222;-55
2023/01/21 10:58:51;;;;;;;;;54.75;40.25;;;;;;;;6371783;22;45629;-56
2023/01/21 11:01:31;;;;;;;;;51.75;41.00;;;;;;;;6403028;22;45357;-55
2023/01/21 11:03:58;;;;;;;;;52.75;39.75;;;;;;;;6401200;22;46341;-55
2023/01/21 11:06:24;;;;;;;;;50.75;40.25;;;;;;;;6402754;22;45287;-56
2023/01/21 11:08:59;;;;;;;;;51.00;40.75;;;;;;;;6402538;22;45178;-57
2023/01/21 11:11:26;;;;;;;;;48.50;40.50;;;;;;;;6403713;22;45389;-54
2023/01/21 11:13:52;;;;;;;;;43.00;38.75;;;;;;;;6402042;22;46566;-56
2023/01/21 11:16:31;;;;;;;;;44.75;36.50;;;;;;;;6404107;22;45303;-56
2023/01/21 11:18:56;;;;;;;;;41.25;34.50;;;;;;;;6403275;22;45356;-57
2023/01/21 11:21:22;;;;;;;;;50.50;37.75;;;;;;;;6404521;22;45251;-55
2023/01/21 11:24:11;;;;;;;;;48.00;38.25;;;;;;;;6404319;22;45206;-57
2023/01/21 11:26:48;;;;;;;;;43.50;36.00;;;;;;;;6386339;22;45488;-56
2023/01/21 11:29:15;;;;;;;;;41.67;37.00;;;;;;;;6402838;22;45257;-55
2023/01/21 11:31:41;;;;;;;;;40.00;35.33;;;;;;;;6403329;22;45268;-55
2023/01/21 11:34:11;;;;;;;;;44.00;35.50;;;;;;;;6402640;22;46001;-57
2023/01/21 11:36:52;;;;;;;;;43.00;36.00;;;;;;;;6404332;22;45392;-57
2023/01/21 11:39:17;;;;;;;;;43.00;38.00;;;;;;;;6402975;22;45297;-57
2023/01/21 11:41:49;;;;;;;;;35.00;32.33;;;;;;;;6401742;22;45134;-56
2023/01/21 11:44:16;;;;;;;;;51.00;36.00;;;;;;;;6403170;22;46131;-59
2023/01/21 11:46:41;;;;;;;;;40.50;35.00;;;;;;;;6403876;22;45297;-56
2023/01/21 11:49:06;;;;;;;;;45.75;34.25;;;;;;;;6403551;22;45205;-56
2023/01/21 11:51:32;;;;;;;;;35.33;29.67;;;;;;;;6404321;22;45580;-56
2023/01/21 11:54:05;;;;;;;;;38.50;34.75;;;;;;;;6403003;22;46096;-55
2023/01/21 11:56:30;;;;;;;;;39.25;32.75;;;;;;;;6403445;22;45407;-56
2023/01/21 11:58:55;;;;;;;;;44.25;36.50;;;;;;;;6403444;22;45379;-57
2023/01/21 12:01:21;;;;;;;;;42.25;36.00;;;;;;;;6403272;22;45561;-57
2023/01/21 12:03:54;;;;;;;;;50.75;35.75;;;;;;;;6403271;22;46029;-58
2023/01/21 12:06:25;;;;;;;;;43.00;34.75;;;;;;;;6403842;22;45678;-56
2023/01/21 12:08:53;;;;;;;;;52.25;37.50;;;;;;;;6403274;22;45182;-57
2023/01/21 12:11:20;;;;;;;;;28.75;25.75;;;;;;;;6403267;22;45280;-58
2023/01/21 12:14:01;;;;;;;;;53.25;38.25;;;;;;;;6402836;22;46674;-55
2023/01/21 12:16:26;;;;;;;;;46.00;37.75;;;;;;;;6403862;22;45151;-56
2023/01/21 12:18:51;;;;;;;;;48.67;34.33;;;;;;;;6402886;22;45279;-57
2023/01/21 12:21:35;;;;;;;;;42.33;34.67;;;;;;;;6404211;22;45167;-56
2023/01/21 12:24:14;;;;;;;;;44.50;35.75;;;;;;;;6403272;22;46007;-57
2023/01/21 12:26:44;;;;;;;;;48.00;35.33;;;;;;;;6403650;22;45328;-55
2023/01/21 12:29:18;;;;;;;;;52.33;39.67;;;;;;;;6401974;22;45207;-56
2023/01/21 12:31:53;;;;;;;;;43.00;36.33;;;;;;;;6403224;22;45515;-58
2023/01/21 12:34:19;;;;;;;;;49.67;40.33;;;;;;;;6403288;22;45534;-56
2023/01/21 12:36:44;;;;;;;;;53.25;42.50;;;;;;;;6403463;22;45367;-58
2023/01/21 12:39:15;;;;;;;;;49.00;35.00;;;;;;;;6403162;22;45222;-58
2023/01/21 12:41:42;;;;;;;;;43.67;37.00;;;;;;;;6404139;22;45421;-58
2023/01/21 12:44:29;;;;;;;;;50.25;39.50;;;;;;;;6404377;22;45304;-58
2023/01/21 12:46:58;;;;;;;;;46.33;38.00;;;;;;;;6403427;22;45228;-58
2023/01/21 12:49:27;;;;;;;;;48.75;39.25;;;;;;;;6404459;22;45264;-57
2023/01/21 12:51:56;;;;;;;;;49.00;36.33;;;;;;;;6404215;22;45167;-58
2023/01/21 12:54:33;;;;;;;;;32.33;30.33;;;;;;;;6404196;22;46037;-58
2023/01/21 12:56:58;;;;;;;;;48.33;37.33;;;;;;;;6403496;22;45227;-57
2023/01/21 12:59:31;;;;;;;;;43.67;35.67;;;;;;;;6404745;22;45398;-58
2023/01/21 13:01:58;;;;;;;;;42.33;33.33;;;;;;;;6403708;22;45313;-58
2023/01/21 13:04:42;;;;;;;;;44.50;38.75;;;;;;;;6403578;22;45647;-56
2023/01/21 13:07:17;;;;;;;;;45.33;38.33;;;;;;;;6404241;22;45264;-57
2023/01/21 13:09:54;;;;;;;;;53.50;39.25;;;;;;;;6403858;22;45352;-56
2023/01/21 13:12:28;;;;;;;;;47.25;39.00;;;;;;;;6404585;22;45304;-58
2023/01/21 13:15:03;;;;;;;;;53.50;41.75;;;;;;;;6403507;22;46934;-58
2023/01/21 13:17:30;;;;;;;;;49.75;38.25;;;;;;;;6403774;22;45468;-58
2023/01/21 13:19:57;;;;;;;;;50.25;39.00;;;;;;;;6403593;22;45302;-56
2023/01/21 13:22:32;;;;;;;;;44.33;36.00;;;;;;;;6403667;22;45347;-55
2023/01/21 13:25:03;;;;;;;;;48.00;38.25;;;;;;;;6403754;22;46228;-56
2023/01/21 13:27:31;;;;;;;;;51.50;43.00;;;;;;;;6404347;22;45297;-55
2023/01/21 13:30:12;;;;;;;;;45.75;37.75;;;;;;;;6403340;22;45278;-55
2023/01/21 13:32:47;;;;;;;;;32.67;31.00;;;;;;;;6404398;22;45602;-56
2023/01/21 13:35:23;;;;;;;;;44.33;35.67;;;;;;;;6402323;22;45334;-55
2023/01/21 13:38:02;;;;;;;;;38.67;33.67;;;;;;;;6404381;22;45260;-56
2023/01/21 13:40:31;;;;;;;;;40.00;34.67;;;;;;;;6404091;22;45241;-56
2023/01/21 13:43:02;;;;;;;;;44.00;34.33;;;;;;;;6403798;22;45496;-57
2023/01/21 13:45:30;;;;;;;;;44.25;37.25;;;;;;;;6404428;22;46156;-55
2023/01/21 13:48:18;;;;;;;;;42.25;34.75;;;;;;;;6403702;22;45186;-54
2023/01/21 13:50:56;;;;;;;;;49.67;37.67;;;;;;;;6404523;22;45329;-59
2023/01/21 13:53:25;;;;;;;;;46.25;35.75;;;;;;;;6403847;22;45196;-56
2023/01/21 13:55:53;;;;;;;;;50.50;37.25;;;;;;;;6404006;22;46280;-56
2023/01/21 13:58:27;;;;;;;;;46.00;38.25;;;;;;;;6402905;22;45268;-56
2023/01/21 14:01:01;;;;;;;;;42.67;36.00;;;;;;;;6403898;22;45575;-55
2023/01/21 14:03:32;;;;;;;;;38.25;30.00;;;;;;;;6404267;22;45394;-56
2023/01/21 14:06:17;;;;;;;;;47.00;37.25;;;;;;;;6403961;22;45286;-56
2023/01/21 14:08:46;;;;;;;;;48.00;38.00;;;;;;;;6404371;22;45236;-58
2023/01/21 14:11:15;;;;;;;;;37.50;33.75;;;;;;;;6402968;22;45242;-56
2023/01/21 14:13:41;;;;;;;;;41.25;31.75;;;;;;;;6404197;22;45276;-56
2023/01/21 14:16:20;;;;;;;;;48.00;37.00;;;;;;;;6375308;22;45900;-55
2023/01/21 14:18:51;;;;;;;;;44.00;35.50;;;;;;;;6404398;22;45315;-56
2023/01/21 14:21:17;;;;;;;;;38.33;31.33;;;;;;;;6404880;22;45159;-56
2023/01/21 14:24:00;;;;;;;;;44.75;37.50;;;;;;;;6404749;22;45175;-55
2023/01/21 14:26:38;;;;;;;;;45.25;37.25;;;;;;;;6403772;22;45280;-55
2023/01/21 14:29:05;;;;;;;;;40.50;33.25;;;;;;;;6403309;22;45231;-54
2023/01/21 14:31:50;;;;;;;;;35.25;29.00;;;;;;;;6403329;22;45213;-57
2023/01/21 14:34:16;;;;;;;;;52.25;39.25;;;;;;;;6403307;22;45419;-56
2023/01/21 14:36:59;;;;;;;;;42.00;34.00;;;;;;;;6403635;22;46206;-56
2023/01/21 14:39:25;;;;;;;;;40.00;31.75;;;;;;;;6403506;22;45263;-56
2023/01/21 14:42:09;;;;;;;;;40.00;30.00;;;;;;;;6404583;22;45210;-56
2023/01/21 14:44:41;;;;;;;;;38.00;31.75;;;;;;;;6404274;22;45434;-55
2023/01/21 14:47:13;;;;;;;;;36.25;30.75;;;;;;;;6403427;22;46214;-55
2023/01/21 14:49:40;;;;;;;;;33.50;28.75;;;;;;;;6403963;22;45290;-57
2023/01/21 14:52:05;;;;;;;;;45.00;29.75;;;;;;;;6404484;22;45686;-56
2023/01/21 14:54:30;;;;;;;;;42.75;37.25;;;;;;;;6404476;22;45367;-57
2023/01/21 14:56:59;;;;;;;;;34.75;33.25;;;;;;;;6403325;22;45815;-56
2023/01/21 14:59:30;;;;;;;;;43.25;35.50;;;;;;;;6403580;22;45347;-55
2023/01/21 15:02:02;;;;;;;;;37.25;29.50;;;;;;;;6403301;22;45300;-56
2023/01/21 15:04:33;;;;;;;;;44.25;34.75;;;;;;;;6403786;22;45403;-54
2023/01/21 15:06:59;;;;;;;;;41.50;34.00;;;;;;;;6402900;22;46257;-55
2023/01/21 15:09:30;;;;;;;;;51.00;33.25;;;;;;;;6403570;22;45519;-58
2023/01/21 15:11:58;;;;;;;;;49.25;35.50;;;;;;;;6400976;22;45328;-56
2023/01/21 15:14:26;;;;;;;;;46.00;37.25;;;;;;;;6401371;22;45204;-56
2023/01/21 15:16:51;;;;;;;;;46.00;35.00;;;;;;;;6402012;22;45261;-55
2023/01/21 15:19:35;;;;;;;;;44.00;40.25;;;;;;;;6401949;22;45261;-55
2023/01/21 15:22:17;;;;;;;;;42.00;34.00;;;;;;;;6403110;22;45307;-54
2023/01/21 15:25:01;;;;;;;;;39.00;30.50;;;;;;;;6402777;22;45429;-55
2023/01/21 15:27:27;;;;;;;;;35.00;29.50;;;;;;;;6401297;22;45310;-57
2023/01/21 15:29:59;;;;;;;;;44.50;36.25;;;;;;;;6399585;22;45330;-56
2023/01/21 15:32:29;;;;;;;;;32.50;29.25;;;;;;;;6400468;22;45402;-57
2023/01/21 15:35:14;;;;;;;;;41.00;32.50;;;;;;;;6371784;22;45407;-56
2023/01/21 15:37:42;;;;;;;;;37.25;31.75;;;;;;;;6378431;22;46448;-56
2023/01/21 15:40:18;;;;;;;;;37.75;31.50;;;;;;;;6400167;22;45284;-56
2023/01/21 15:42:55;;;;;;;;;35.75;32.75;;;;;;;;6400192;22;45514;-56
2023/01/21 15:45:31;;;;;;;;;47.75;33.25;;;;;;;;6398578;22;45476;-56
2023/01/21 15:48:12;;;;;;;;;43.50;34.25;;;;;;;;6399369;22;45480;-56
2023/01/21 15:50:46;;;;;;;;;44.75;32.75;;;;;;;;6401052;22;45691;-57
2023/01/21 15:53:34;;;;;;;;;37.00;33.00;;;;;;;;6401234;22;45684;-55
2023/01/21 15:56:16;;;;;;;;;33.50;29.75;;;;;;;;6370183;22;45559;-50
2023/01/21 15:58:44;;;;;;;;;38.75;30.00;;;;;;;;6401456;22;45318;-52
2023/01/21 16:01:22;;;;;;;;;34.50;30.00;;;;;;;;6401930;22;45330;-54
2023/01/21 16:03:59;;;;;;;;;27.50;26.25;;;;;;;;6402420;22;45301;-55
2023/01/21 16:06:33;;;;;;;;;30.00;25.50;;;;;;;;6400625;22;45308;-54
2023/01/21 16:09:13;;;;;;;;;28.25;25.25;;;;;;;;6368593;22;46283;-55
2023/01/21 16:11:44;;;;;;;;;42.25;32.25;;;;;;;;6368892;22;45385;-57
2023/01/21 16:14:28;;;;;;;;;32.00;28.00;;;;;;;;6400259;22;45394;-56
2023/01/21 16:17:05;;;;;;;;;27.75;25.00;;;;;;;;6400215;22;46106;-56
2023/01/21 16:19:33;;;;;;;;;27.75;24.50;;;;;;;;6400676;22;45321;-55
2023/01/21 16:22:01;;;;;;;;;33.00;25.75;;;;;;;;6400133;22;45278;-56
2023/01/21 16:24:27;;;;;;;;;30.00;29.00;;;;;;;;6373052;22;45294;-55
2023/01/21 16:26:53;;;;;;;;;30.25;24.75;;;;;;;;6400356;22;45493;-54
2023/01/21 16:29:18;;;;;;;;;23.00;22.00;;;;;;;;6401814;22;46640;-56
2023/01/21 16:31:50;;;;;;;;;33.75;23.75;;;;;;;;6401800;22;45564;-55
2023/01/21 16:34:23;;;;;;;;;34.25;29.50;;;;;;;;6401373;22;45332;-54
2023/01/21 16:36:48;;;;;;;;;39.00;28.25;;;;;;;;6399145;22;45651;-58
2023/01/21 16:39:18;;;;;;;;;42.00;28.75;;;;;;;;6398230;22;45385;-58
2023/01/21 16:41:57;;;;;;;;;34.25;29.75;;;;;;;;6400197;22;45550;-55
2023/01/21 16:44:22;;;;;;;;;42.75;29.25;;;;;;;;6401301;22;45347;-56
2023/01/21 16:46:49;;;;;;;;;18.50;17.75;;;;;;;;6401790;22;45439;-56
2023/01/21 16:49:15;;;;;;;;;34.75;28.50;;;;;;;;6400957;22;45645;-54
2023/01/21 16:51:44;;;;;;;;;36.75;29.50;;;;;;;;6401680;22;45647;-56
2023/01/21 16:54:19;;;;;;;;;28.00;27.00;;;;;;;;6400473;22;45418;-55
2023/01/21 16:56:47;;;;;;;;;29.00;26.25;;;;;;;;6401200;22;45229;-56
2023/01/21 16:59:19;;;;;;;;;33.50;28.00;;;;;;;;6398805;22;45856;-57
2023/01/21 17:01:44;;;;;;;;;34.50;29.00;;;;;;;;6400446;22;45415;-54
2023/01/21 17:04:10;;;;;;;;;49.00;35.50;;;;;;;;6400551;22;45411;-57
2023/01/21 17:06:35;;;;;;;;;35.25;29.00;;;;;;;;6402066;22;45242;-56
2023/01/21 17:09:03;;;;;;;;;28.75;24.75;;;;;;;;6400148;22;46081;-55
2023/01/21 17:11:30;;;;;;;;;37.75;34.25;;;;;;;;6400536;22;45345;-55
2023/01/21 17:13:56;;;;;;;;;38.75;35.25;;;;;;;;6400986;22;45338;-55
2023/01/21 17:16:23;;;;;;;;;33.00;28.00;;;;;;;;6402454;22;45401;-55
2023/01/21 17:18:55;;;;;;;;;36.25;23.50;;;;;;;;6402115;22;46464;-54
2023/01/21 17:21:37;;;;;;;;;40.50;36.25;;;;;;;;6402645;22;45747;-56
2023/01/21 17:24:14;;;;;;;;;51.75;37.00;;;;;;;;6401787;22;45273;-57
2023/01/21 17:26:43;;;;;;;;;42.00;33.50;;;;;;;;6402987;22;45293;-58
2023/01/21 17:29:17;;;;;;;;;43.00;35.25;;;;;;;;6402397;22;45160;-56
2023/01/21 17:31:43;;;;;;;;;54.50;37.75;;;;;;;;6403542;22;45264;-55
2023/01/21 17:34:15;;;;;;;;;46.00;34.75;;;;;;;;6403038;22;45360;-56
2023/01/21 17:36:41;;;;;;;;;52.50;40.00;;;;;;;;6404904;22;45235;-57
2023/01/21 17:39:08;;;;;;;;;49.75;39.00;;;;;;;;6403857;22;45240;-57
2023/01/21 17:41:36;;;;;;;;;47.75;37.00;;;;;;;;6404342;22;45212;-56
2023/01/21 17:44:02;;;;;;;;;45.50;39.25;;;;;;;;6403091;22;45195;-56
2023/01/21 17:46:28;;;;;;;;;45.00;38.25;;;;;;;;6404283;22;45535;-56
2023/01/21 17:48:56;;;;;;;;;46.00;36.75;;;;;;;;6403835;22;45356;-56
2023/01/21 17:51:26;;;;;;;;;47.50;39.00;;;;;;;;6404076;22;45301;-56
2023/01/21 17:53:58;;;;;;;;;52.25;40.50;;;;;;;;6403837;22;45205;-55
2023/01/21 17:56:41;;;;;;;;;41.00;35.50;;;;;;;;6404277;22;45407;-55
2023/01/21 17:59:25;;;;;;;;;57.25;35.00;;;;;;;;6403562;22;45372;-56
2023/01/21 18:01:51;;;;;;;;;40.50;31.50;;;;;;;;6402048;22;45265;-56
2023/01/21 18:04:16;;;;;;;;;34.25;19.00;;;;;;;;6403933;22;45370;-56
2023/01/21 18:06:41;;;;;;;;;46.50;36.00;;;;;;;;6404623;22;45369;-57
2023/01/21 18:09:14;;;;;;;;;46.00;34.50;;;;;;;;6403523;22;45395;-58
2023/01/21 18:11:39;;;;;;;;;40.50;34.50;;;;;;;;6404773;22;45378;-57
2023/01/21 18:14:04;;;;;;;;;51.75;38.25;;;;;;;;6403807;22;45299;-57
2023/01/21 18:16:30;;;;;;;;;60.25;44.75;;;;;;;;6404259;22;45342;-57
2023/01/21 18:18:55;;;;;;;;;61.00;40.75;;;;;;;;6403253;22;46039;-57
2023/01/21 18:21:20;;;;;;;;;61.00;45.00;;;;;;;;6403915;22;45325;-57
2023/01/21 18:23:46;;;;;;;;;61.50;41.75;;;;;;;;6404210;22;45308;-57
2023/01/21 18:26:25;;;;;;;;;57.00;45.00;;;;;;;;6404385;22;45274;-57
2023/01/21 18:28:50;;;;;;;;;63.50;49.00;;;;;;;;6404018;22;46012;-58
2023/01/21 18:31:15;;;;;;;;;52.25;42.50;;;;;;;;6404194;22;45224;-57
2023/01/21 18:33:41;;;;;;;;;62.00;46.25;;;;;;;;6404417;22;45503;-56
2023/01/21 18:36:09;;;;;;;;;55.50;41.50;;;;;;;;6403500;22;45289;-57
2023/01/21 18:38:34;;;;;;;;;57.00;40.75;;;;;;;;6403348;22;45292;-57
2023/01/21 18:40:59;;;;;;;;;55.75;44.50;;;;;;;;6402711;22;45280;-57
2023/01/21 18:43:25;;;;;;;;;54.25;38.00;;;;;;;;6404907;22;45211;-57
2023/01/21 18:45:50;;;;;;;;;60.25;46.25;;;;;;;;6404684;22;45302;-57
2023/01/21 18:48:26;;;;;;;;;55.25;41.75;;;;;;;;6404322;22;45643;-57
2023/01/21 18:50:51;;;;;;;;;61.00;45.00;;;;;;;;6403442;22;45601;-58
2023/01/21 18:53:16;;;;;;;;;55.50;41.50;;;;;;;;6403320;22;45245;-57
2023/01/21 18:55:42;;;;;;;;;53.75;42.50;;;;;;;;6404195;22;45316;-57
2023/01/21 18:58:11;;;;;;;;;58.25;46.25;;;;;;;;6403840;22;46282;-57
2023/01/21 19:00:36;;;;;;;;;58.00;45.75;;;;;;;;6403177;22;45162;-56
2023/01/21 19:03:01;;;;;;;;;49.00;40.25;;;;;;;;6402513;22;45264;-57
2023/01/21 19:05:32;;;;;;;;;53.50;41.00;;;;;;;;6401222;22;45473;-56
2023/01/21 19:07:58;;;;;;;;;64.50;48.50;;;;;;;;6402344;22;47348;-55
2023/01/21 19:10:23;;;;;;;;;58.25;45.75;;;;;;;;6374548;22;45275;-58
2023/01/21 19:12:48;;;;;;;;;61.25;44.50;;;;;;;;6404552;22;45195;-57
2023/01/21 19:15:15;;;;;;;;;54.25;44.25;;;;;;;;6403250;22;45316;-58
2023/01/21 19:17:40;;;;;;;;;61.75;45.00;;;;;;;;6404090;22;46083;-58
2023/01/21 19:20:07;;;;;;;;;55.25;42.25;;;;;;;;6403888;22;45140;-58
2023/01/21 19:22:33;;;;;;;;;58.50;45.25;;;;;;;;6403074;22;45315;-58
2023/01/21 19:24:58;;;;;;;;;60.25;43.00;;;;;;;;6403252;22;45297;-57
2023/01/21 19:27:27;;;;;;;;;65.00;44.25;;;;;;;;6404389;22;45305;-56
2023/01/21 19:29:52;;;;;;;;;61.25;46.50;;;;;;;;6403143;22;45339;-57
2023/01/21 19:32:17;;;;;;;;;64.25;47.75;;;;;;;;6404233;22;45571;-56
2023/01/21 19:34:42;;;;;;;;;61.75;50.00;;;;;;;;6404322;22;45549;-57
2023/01/21 19:37:14;;;;;;;;;57.75;46.50;;;;;;;;6403112;22;46074;-58
2023/01/21 19:39:39;;;;;;;;;66.75;48.50;;;;;;;;6402207;22;45258;-57
2023/01/21 19:42:04;;;;;;;;;58.75;44.50;;;;;;;;6402678;22;45284;-58
2023/01/21 19:44:30;;;;;;;;;61.50;48.50;;;;;;;;6403889;22;45669;-56
2023/01/21 19:46:56;;;;;;;;;60.00;46.25;;;;;;;;6403117;22;46208;-57
2023/01/21 19:49:22;;;;;;;;;61.50;46.25;;;;;;;;6404264;22;45462;-57
2023/01/21 19:51:48;;;;;;;;;66.50;48.75;;;;;;;;6403466;22;45254;-57
2023/01/21 19:54:13;;;;;;;;;62.50;46.50;;;;;;;;6402947;22;45311;-56
2023/01/21 19:56:38;;;;;;;;;54.75;43.75;;;;;;;;6402857;22;46104;-58
2023/01/21 19:59:04;;;;;;;;;52.75;46.00;;;;;;;;6403518;22;45074;-55
2023/01/21 20:01:29;;;;;;;;;60.25;47.25;;;;;;;;6374634;22;45511;-57
2023/01/21 20:03:54;;;;;;;;;62.50;45.75;;;;;;;;6403765;22;45189;-57
2023/01/21 20:06:20;;;;;;;;;64.25;49.75;;;;;;;;6403904;22;45415;-57
2023/01/21 20:08:46;;;;;;;;;48.25;43.50;;;;;;;;6404256;22;45234;-58
2023/01/21 20:11:11;;;;;;;;;63.75;46.00;;;;;;;;6402846;22;45193;-58
2023/01/21 20:13:38;;;;;;;;;68.50;50.25;;;;;;;;6402569;22;45353;-57
2023/01/21 20:16:13;;;;;;;;;72.25;51.75;;;;;;;;6402720;22;46860;-56
2023/01/21 20:18:39;;;;;;;;;66.50;49.25;;;;;;;;6404162;22;45330;-56
2023/01/21 20:21:04;;;;;;;;;68.75;50.75;;;;;;;;6403415;22;45636;-55
2023/01/21 20:23:31;;;;;;;;;66.00;49.00;;;;;;;;6404530;22;45188;-56
2023/01/21 20:25:57;;;;;;;;;63.00;50.50;;;;;;;;6401932;22;46169;-56
2023/01/21 20:28:24;;;;;;;;;60.50;48.25;;;;;;;;6404053;22;45241;-57
2023/01/21 20:30:50;;;;;;;;;65.50;53.75;;;;;;;;6404311;22;45199;-56
2023/01/21 20:33:17;;;;;;;;;67.00;48.00;;;;;;;;6403167;22;45208;-57
2023/01/21 20:35:43;;;;;;;;;63.75;51.00;;;;;;;;6403231;22;46030;-58
2023/01/21 20:38:12;;;;;;;;;60.25;47.50;;;;;;;;6403019;22;45372;-57
2023/01/21 20:40:38;;;;;;;;;61.00;48.25;;;;;;;;6403600;22;45189;-58
2023/01/21 20:43:03;;;;;;;;;67.50;51.00;;;;;;;;6402375;22;45167;-58
2023/01/21 20:45:30;;;;;;;;;72.25;55.00;;;;;;;;6403220;22;45218;-57
2023/01/21 20:47:57;;;;;;;;;67.25;49.75;;;;;;;;6402641;22;45155;-58
2023/01/21 20:50:23;;;;;;;;;63.25;49.50;;;;;;;;6403571;22;45385;-57
2023/01/21 20:52:49;;;;;;;;;63.50;48.50;;;;;;;;6404082;22;45335;-56
2023/01/21 20:55:14;;;;;;;;;74.25;54.25;;;;;;;;6401123;22;45269;-58
2023/01/21 20:57:40;;;;;;;;;66.00;50.25;;;;;;;;6403592;22;45456;-57
2023/01/21 21:00:06;;;;;;;;;64.25;47.00;;;;;;;;6402054;22;45759;-57
2023/01/21 21:02:31;;;;;;;;;59.00;45.00;;;;;;;;6373126;22;45379;-55
2023/01/21 21:04:57;;;;;;;;;66.75;45.75;;;;;;;;6404201;22;45266;-55
2023/01/21 21:07:25;;;;;;;;;58.50;38.25;;;;;;;;6405359;22;45230;-59
2023/01/21 21:09:53;;;;;;;;;67.75;48.50;;;;;;;;6404176;22;45249;-57
2023/01/21 21:12:18;;;;;;;;;67.50;48.00;;;;;;;;6403520;22;45320;-56
2023/01/21 21:14:43;;;;;;;;;64.50;48.50;;;;;;;;6404618;22;45348;-59
2023/01/21 21:17:10;;;;;;;;;72.25;50.25;;;;;;;;6404191;22;45287;-56
2023/01/21 21:19:35;;;;;;;;;72.50;55.00;;;;;;;;6404985;22;45334;-55
2023/01/21 21:22:01;;;;;;;;;60.25;46.00;;;;;;;;6403947;22;45279;-58
2023/01/21 21:24:28;;;;;;;;;67.75;52.75;;;;;;;;6404795;22;45316;-56
2023/01/21 21:26:53;;;;;;;;;52.75;38.00;;;;;;;;6403957;22;45292;-56
2023/01/21 21:29:19;;;;;;;;;63.50;50.50;;;;;;;;6404365;22;45277;-56
2023/01/21 21:31:44;;;;;;;;;66.00;50.00;;;;;;;;6404968;22;45308;-56